createdAt,value
2022-11-05T00:00:35.534Z,100.00
2022-11-05T00:03:20.890Z,100.00
2022-11-05T00:06:08.664Z,100.00
2022-11-05T00:08:54.092Z,100.00
2022-11-05T00:11:40.674Z,100.00
2022-11-05T00:14:25.689Z,100.00
2022-11-05T00:16:52.132Z,100.00
2022-11-05T00:19:18.597Z,100.00
2022-11-05T00:22:03.581Z,100.00
2022-11-05T00:24:48.686Z,100.00
2022-11-05T00:27:15.183Z,100.00
2022-11-05T00:29:41.609Z,100.00
2022-11-05T00:32:08.124Z,100.00
2022-11-05T00:34:34.690Z,100.00
2022-11-05T00:37:01.268Z,100.00
2022-11-05T00:39:27.836Z,100.00
2022-11-05T00:42:13.256Z,100.00
2022-11-05T00:44:57.968Z,100.00
2022-11-05T00:47:43.421Z,100.00
2022-11-05T00:50:10.680Z,100.00
2022-11-05T00:52:56.332Z,100.00
2022-11-05T00:55:28.993Z,100.00
2022-11-05T00:57:56.907Z,100.00
2022-11-05T01:00:25.235Z,100.00
2022-11-05T01:02:52.226Z,100.00
2022-11-05T01:05:18.939Z,100.00
2022-11-05T01:07:45.676Z,100.00
2022-11-05T01:10:12.163Z,100.00
2022-11-05T01:12:38.681Z,100.00
2022-11-05T01:15:06.219Z,100.00
2022-11-05T01:17:32.706Z,100.00
2022-11-05T01:19:59.561Z,100.00
2022-11-05T01:22:26.067Z,100.00
2022-11-05T01:24:52.674Z,100.00
2022-11-05T01:27:19.285Z,100.00
2022-11-05T01:29:45.733Z,100.00
2022-11-05T01:32:12.211Z,100.00
2022-11-05T01:34:38.681Z,100.00
2022-11-05T01:37:05.172Z,100.00
2022-11-05T01:39:31.746Z,100.00
2022-11-05T01:41:58.959Z,100.00
2022-11-05T01:44:53.397Z,100.00
2022-11-05T01:47:25.957Z,100.00
2022-11-05T01:49:53.088Z,100.00
2022-11-05T01:52:21.143Z,100.00
2022-11-05T01:54:47.950Z,100.00
2022-11-05T01:57:14.823Z,100.00
2022-11-05T01:59:47.240Z,100.00
2022-11-05T02:02:14.088Z,100.00
2022-11-05T02:04:48.712Z,100.00
2022-11-05T02:07:15.617Z,100.00
2022-11-05T02:09:51.285Z,100.00
2022-11-05T02:12:18.504Z,100.00
2022-11-05T02:14:44.966Z,100.00
2022-11-05T02:17:22.867Z,100.00
2022-11-05T02:20:11.322Z,100.00
2022-11-05T02:23:06.745Z,100.00
2022-11-05T02:26:20.296Z,100.00
2022-11-05T02:29:22.252Z,100.00
2022-11-05T02:32:13.864Z,100.00
2022-11-05T02:35:01.778Z,100.00
2022-11-05T02:37:40.847Z,100.00
2022-11-05T02:40:19.501Z,100.00
2022-11-05T02:43:02.837Z,100.00
2022-11-05T02:46:02.688Z,100.00
2022-11-05T02:48:49.072Z,100.00
2022-11-05T02:51:31.893Z,100.00
2022-11-05T02:54:16.227Z,100.00
2022-11-05T02:56:48.418Z,100.00
2022-11-05T02:59:14.911Z,100.00
2022-11-05T03:01:43.976Z,100.00
2022-11-05T03:04:13.322Z,100.00
2022-11-05T03:06:55.138Z,100.00
2022-11-05T03:09:33.971Z,100.00
2022-11-05T03:12:22.039Z,100.00
2022-11-05T03:15:16.507Z,100.00
2022-11-05T03:17:48.609Z,100.00
2022-11-05T03:20:19.243Z,100.00
2022-11-05T03:22:59.690Z,100.00
2022-11-05T03:25:29.123Z,100.00
2022-11-05T03:28:05.315Z,100.00
2022-11-05T03:30:33.775Z,100.00
2022-11-05T03:33:13.590Z,100.00
2022-11-05T03:35:46.543Z,100.00
2022-11-05T03:38:19.670Z,100.00
2022-11-05T03:40:49.456Z,100.00
2022-11-05T03:43:17.551Z,100.00
2022-11-05T03:45:50.473Z,100.00
2022-11-05T03:48:19.328Z,100.00
2022-11-05T03:51:12.642Z,100.00
2022-11-05T03:54:05.626Z,100.00
2022-11-05T03:56:35.005Z,100.00
2022-11-05T03:59:04.488Z,100.00
2022-11-05T04:01:31.883Z,100.00
2022-11-05T04:03:58.743Z,100.00
2022-11-05T04:06:43.839Z,100.00
2022-11-05T04:09:29.218Z,100.00
2022-11-05T04:12:14.153Z,100.00
2022-11-05T04:14:40.576Z,100.00
2022-11-05T04:17:07.128Z,100.00
2022-11-05T04:19:53.201Z,100.00
2022-11-05T04:22:38.579Z,100.00
2022-11-05T04:25:05.200Z,100.00
2022-11-05T04:27:31.921Z,100.00
2022-11-05T04:30:16.739Z,100.00
2022-11-05T04:32:43.195Z,100.00
2022-11-05T04:35:09.620Z,100.00
2022-11-05T04:37:36.089Z,100.00
2022-11-05T04:40:02.517Z,100.00
2022-11-05T04:42:29.400Z,100.00
2022-11-05T04:44:55.855Z,100.00
2022-11-05T04:47:22.410Z,100.00
2022-11-05T04:49:48.932Z,100.00
2022-11-05T04:52:15.515Z,100.00
2022-11-05T04:54:41.950Z,100.00
2022-11-05T04:57:08.540Z,100.00
2022-11-05T04:59:35.036Z,100.00
2022-11-05T05:02:02.531Z,100.00
2022-11-05T05:04:29.232Z,100.00
2022-11-05T05:06:55.746Z,100.00
2022-11-05T05:09:22.417Z,100.00
2022-11-05T05:11:48.819Z,100.00
2022-11-05T05:14:15.298Z,100.00
2022-11-05T05:16:41.758Z,100.00
2022-11-05T05:19:08.372Z,100.00
2022-11-05T05:21:41.091Z,100.00
2022-11-05T05:24:16.164Z,100.00
2022-11-05T05:26:45.299Z,100.00
2022-11-05T05:29:12.286Z,100.00
2022-11-05T05:31:38.933Z,100.00
2022-11-05T05:34:06.542Z,100.00
2022-11-05T05:36:33.582Z,100.00
2022-11-05T05:39:00.258Z,100.00
2022-11-05T05:41:27.939Z,100.00
2022-11-05T05:43:54.489Z,100.00
2022-11-05T05:46:20.930Z,100.00
2022-11-05T05:48:51.926Z,100.00
2022-11-05T05:51:18.983Z,100.00
2022-11-05T05:53:45.568Z,100.00
2022-11-05T05:56:14.868Z,100.00
2022-11-05T05:58:41.796Z,100.00
2022-11-05T06:01:17.420Z,100.00
2022-11-05T06:03:45.607Z,100.00
2022-11-05T06:06:14.008Z,100.00
2022-11-05T06:08:40.992Z,100.00
2022-11-05T06:11:08.519Z,100.00
2022-11-05T06:13:36.467Z,100.00
2022-11-05T06:16:05.051Z,100.00
2022-11-05T06:18:32.425Z,100.00
2022-11-05T06:21:10.112Z,100.00
2022-11-05T06:23:38.089Z,100.00
2022-11-05T06:26:07.534Z,100.00
2022-11-05T06:28:34.744Z,100.00
2022-11-05T06:31:02.282Z,100.00
2022-11-05T06:33:29.404Z,100.00
2022-11-05T06:35:59.469Z,100.00
2022-11-05T06:38:26.040Z,100.00
2022-11-05T06:40:52.536Z,100.00
2022-11-05T06:43:19.007Z,100.00
2022-11-05T06:45:45.480Z,100.00
2022-11-05T06:48:11.943Z,100.00
2022-11-05T06:50:38.430Z,100.00
2022-11-05T06:53:05.426Z,100.00
2022-11-05T06:55:32.188Z,100.00
2022-11-05T06:57:59.028Z,100.00
2022-11-05T07:00:25.855Z,100.00
2022-11-05T07:02:52.317Z,100.00
2022-11-05T07:05:18.774Z,100.00
2022-11-05T07:07:45.779Z,100.00
2022-11-05T07:10:14.939Z,100.00
2022-11-05T07:12:41.807Z,100.00
2022-11-05T07:15:09.478Z,100.00
2022-11-05T07:17:35.988Z,100.00
2022-11-05T07:20:03.766Z,100.00
2022-11-05T07:22:30.425Z,100.00
2022-11-05T07:24:57.057Z,100.00
2022-11-05T07:27:23.565Z,100.00
2022-11-05T07:29:50.031Z,100.00
2022-11-05T07:32:16.524Z,100.00
2022-11-05T07:34:43.039Z,100.00
2022-11-05T07:37:09.650Z,100.00
2022-11-05T07:39:36.104Z,100.00
2022-11-05T07:42:02.760Z,100.00
2022-11-05T07:44:33.062Z,100.00
2022-11-05T07:46:59.773Z,100.00
2022-11-05T07:49:26.255Z,100.00
2022-11-05T07:51:53.579Z,100.00
2022-11-05T07:54:20.071Z,100.00
2022-11-05T07:56:47.938Z,100.00
2022-11-05T07:59:14.375Z,100.00
2022-11-05T08:01:41.046Z,100.00
2022-11-05T08:04:07.568Z,100.00
2022-11-05T08:06:34.104Z,100.00
2022-11-05T08:09:00.903Z,100.00
2022-11-05T08:11:27.863Z,100.00
2022-11-05T08:13:54.522Z,100.00
2022-11-05T08:16:20.963Z,100.00
2022-11-05T08:18:48.252Z,100.00
2022-11-05T08:21:14.853Z,100.00
2022-11-05T08:23:42.846Z,100.00
2022-11-05T08:26:09.989Z,100.00
2022-11-05T08:28:36.424Z,100.00
2022-11-05T08:31:02.915Z,100.00
2022-11-05T08:33:31.416Z,100.00
2022-11-05T08:36:03.334Z,100.00
2022-11-05T08:38:30.528Z,100.00
2022-11-05T08:40:58.659Z,100.00
2022-11-05T08:43:25.421Z,100.00
2022-11-05T08:45:52.063Z,100.00
2022-11-05T08:48:19.483Z,100.00
2022-11-05T08:50:47.751Z,100.00
2022-11-05T08:53:15.462Z,100.00
2022-11-05T08:55:43.807Z,100.00
2022-11-05T08:58:15.065Z,100.00
2022-11-05T09:00:42.204Z,100.00
2022-11-05T09:03:10.521Z,100.00
2022-11-05T09:05:39.622Z,100.00
2022-11-05T09:08:18.483Z,100.00
2022-11-05T09:10:46.472Z,100.00
2022-11-05T09:13:18.384Z,100.00
2022-11-05T09:15:47.656Z,100.00
2022-11-05T09:18:15.096Z,100.00
2022-11-05T09:20:42.249Z,99.83
2022-11-05T09:23:11.102Z,99.47
2022-11-05T09:25:37.773Z,99.14
2022-11-05T09:28:18.029Z,98.90
2022-11-05T09:30:48.250Z,98.41
2022-11-05T09:33:16.172Z,98.88
2022-11-05T09:35:42.763Z,98.62
2022-11-05T09:38:09.845Z,97.80
2022-11-05T09:40:44.759Z,97.12
2022-11-05T09:43:19.659Z,97.20
2022-11-05T09:45:51.240Z,96.41
2022-11-05T09:48:22.019Z,96.85
2022-11-05T09:50:48.630Z,95.59
2022-11-05T09:53:19.039Z,95.27
2022-11-05T09:55:49.140Z,95.44
2022-11-05T09:58:28.519Z,93.30
2022-11-05T10:00:57.233Z,90.67
2022-11-05T10:03:26.220Z,89.73
2022-11-05T10:05:54.448Z,88.93
2022-11-05T10:08:25.710Z,88.51
2022-11-05T10:11:03.629Z,89.43
2022-11-05T10:13:50.541Z,88.29
2022-11-05T10:16:27.550Z,87.40
2022-11-05T10:19:06.060Z,86.23
2022-11-05T10:22:04.139Z,85.97
2022-11-05T10:24:20.999Z,84.65
2022-11-05T10:26:50.497Z,84.33
2022-11-05T10:29:25.573Z,83.68
2022-11-05T10:31:54.362Z,83.93
2022-11-05T10:34:23.776Z,84.43
2022-11-05T10:36:50.261Z,84.80
2022-11-05T10:39:18.702Z,83.05
2022-11-05T10:42:04.023Z,83.50
2022-11-05T10:44:39.826Z,81.50
2022-11-05T10:47:25.639Z,81.90
2022-11-05T10:50:05.068Z,83.21
2022-11-05T10:52:34.513Z,82.31
2022-11-05T10:55:04.905Z,81.93
2022-11-05T10:57:38.252Z,81.61
2022-11-05T11:00:17.902Z,81.28
2022-11-05T11:02:49.189Z,80.35
2022-11-05T11:05:27.112Z,80.58
2022-11-05T11:08:07.726Z,80.21
2022-11-05T11:11:02.432Z,80.72
2022-11-05T11:13:50.536Z,80.47
2022-11-05T11:16:22.365Z,79.17
2022-11-05T11:19:03.237Z,80.08
2022-11-05T11:21:31.736Z,79.27
2022-11-05T11:24:06.957Z,79.24
2022-11-05T11:26:40.229Z,78.61
2022-11-05T11:29:12.769Z,78.70
2022-11-05T11:31:40.358Z,79.40
2022-11-05T11:34:28.846Z,77.72
2022-11-05T11:37:12.852Z,78.27
2022-11-05T11:39:47.151Z,77.90
2022-11-05T11:42:27.328Z,77.81
2022-11-05T11:44:54.309Z,76.79
2022-11-05T11:47:22.233Z,76.37
2022-11-05T11:50:00.672Z,76.52
2022-11-05T11:52:35.870Z,75.38
2022-11-05T11:55:11.675Z,74.76
2022-11-05T11:57:50.065Z,74.13
2022-11-05T12:00:18.583Z,75.11
2022-11-05T12:03:20.367Z,74.15
2022-11-05T12:06:06.137Z,73.44
2022-11-05T12:09:05.182Z,73.62
2022-11-05T12:12:03.141Z,73.69
2022-11-05T12:14:58.059Z,73.16
2022-11-05T12:17:46.396Z,72.87
2022-11-05T12:20:32.027Z,72.71
2022-11-05T12:23:12.717Z,71.55
2022-11-05T12:25:48.831Z,71.45
2022-11-05T12:29:17.378Z,71.72
2022-11-05T12:31:52.531Z,70.89
2022-11-05T12:34:37.453Z,72.11
2022-11-05T12:37:34.716Z,72.31
2022-11-05T12:40:19.336Z,71.64
2022-11-05T12:43:09.065Z,71.48
2022-11-05T12:45:51.150Z,71.41
2022-11-05T12:48:39.296Z,71.44
2022-11-05T12:51:27.386Z,71.06
2022-11-05T12:54:04.814Z,71.05
2022-11-05T12:56:38.111Z,71.34
2022-11-05T12:59:36.114Z,71.43
2022-11-05T13:02:36.010Z,71.06
2022-11-05T13:05:13.943Z,70.83
2022-11-05T13:07:53.223Z,71.06
2022-11-05T13:10:35.183Z,70.51
2022-11-05T13:13:12.152Z,70.84
2022-11-05T13:15:49.523Z,70.98
2022-11-05T13:18:24.084Z,70.80
2022-11-05T13:20:53.925Z,70.97
2022-11-05T13:23:29.817Z,71.18
2022-11-05T13:26:02.703Z,71.27
2022-11-05T13:28:35.344Z,71.32
2022-11-05T13:31:06.406Z,71.48
2022-11-05T13:33:36.450Z,70.69
2022-11-05T13:36:33.239Z,70.60
2022-11-05T13:39:13.740Z,69.75
2022-11-05T13:42:06.057Z,69.94
2022-11-05T13:45:02.351Z,68.74
2022-11-05T13:47:35.026Z,68.63
2022-11-05T13:50:40.792Z,68.69
2022-11-05T13:53:28.849Z,69.25
2022-11-05T13:56:33.538Z,69.66
2022-11-05T13:59:18.569Z,69.59
2022-11-05T14:02:18.651Z,70.14
2022-11-05T14:04:49.144Z,70.12
2022-11-05T14:07:23.750Z,70.79
2022-11-05T14:09:57.615Z,70.75
2022-11-05T14:12:29.385Z,71.40
2022-11-05T14:15:09.339Z,71.47
2022-11-05T14:17:58.000Z,71.26
2022-11-05T14:20:30.748Z,71.11
2022-11-05T14:23:25.376Z,71.51
2022-11-05T14:25:55.851Z,71.04
2022-11-05T14:28:28.285Z,71.80
2022-11-05T14:30:55.164Z,72.30
2022-11-05T14:33:24.535Z,71.64
2022-11-05T14:36:14.331Z,72.60
2022-11-05T14:38:52.141Z,72.40
2022-11-05T14:41:20.278Z,72.29
2022-11-05T14:43:58.816Z,72.41
2022-11-05T14:46:39.405Z,72.54
2022-11-05T14:49:09.702Z,73.31
2022-11-05T14:51:39.885Z,72.96
2022-11-05T14:54:24.845Z,73.08
2022-11-05T14:56:56.495Z,73.92
2022-11-05T14:59:29.070Z,74.17
2022-11-05T15:02:17.789Z,74.20
2022-11-05T15:04:45.586Z,74.65
2022-11-05T15:07:31.772Z,75.01
2022-11-05T15:10:14.083Z,75.23
2022-11-05T15:12:52.611Z,75.72
2022-11-05T15:15:23.644Z,75.44
2022-11-05T15:18:00.676Z,75.67
2022-11-05T15:20:39.950Z,75.03
2022-11-05T15:23:12.739Z,75.51
2022-11-05T15:25:53.240Z,75.89
2022-11-05T15:28:27.344Z,76.38
2022-11-05T15:31:14.438Z,76.50
2022-11-05T15:33:42.322Z,76.79
2022-11-05T15:36:31.260Z,76.63
2022-11-05T15:39:28.003Z,77.15
2022-11-05T15:41:46.784Z,77.09
2022-11-05T15:44:37.876Z,77.36
2022-11-05T15:47:26.221Z,77.35
2022-11-05T15:50:14.973Z,78.16
2022-11-05T15:52:53.766Z,77.83
2022-11-05T15:55:20.357Z,77.85
2022-11-05T15:57:56.973Z,78.37
2022-11-05T16:00:28.549Z,78.58
2022-11-05T16:03:17.556Z,78.65
2022-11-05T16:05:46.294Z,78.87
2022-11-05T16:08:20.637Z,78.95
2022-11-05T16:10:55.645Z,78.94
2022-11-05T16:13:33.728Z,78.90
2022-11-05T16:16:03.365Z,78.83
2022-11-05T16:18:40.414Z,79.24
2022-11-05T16:21:08.409Z,79.03
2022-11-05T16:23:43.245Z,79.63
2022-11-05T16:27:01.798Z,79.66
2022-11-05T16:29:31.185Z,79.96
2022-11-05T16:32:00.257Z,79.76
2022-11-05T16:34:35.760Z,80.25
2022-11-05T16:37:03.255Z,80.50
2022-11-05T16:39:29.932Z,80.42
2022-11-05T16:41:56.387Z,80.86
2022-11-05T16:44:23.018Z,80.57
2022-11-05T16:46:50.327Z,80.60
2022-11-05T16:49:17.426Z,80.70
2022-11-05T16:51:44.061Z,80.67
2022-11-05T16:54:10.723Z,80.44
2022-11-05T16:56:37.238Z,80.17
2022-11-05T16:59:04.366Z,80.25
2022-11-05T17:01:31.933Z,80.87
2022-11-05T17:03:59.200Z,81.02
2022-11-05T17:06:25.773Z,81.04
2022-11-05T17:08:52.225Z,80.96
2022-11-05T17:11:20.666Z,80.99
2022-11-05T17:13:47.559Z,81.37
2022-11-05T17:16:17.372Z,81.35
2022-11-05T17:18:44.364Z,81.47
2022-11-05T17:21:11.173Z,81.51
2022-11-05T17:23:37.888Z,81.98
2022-11-05T17:26:08.027Z,81.53
2022-11-05T17:28:35.196Z,81.47
2022-11-05T17:31:04.463Z,81.41
2022-11-05T17:33:31.599Z,81.45
2022-11-05T17:35:58.211Z,81.88
2022-11-05T17:38:25.945Z,81.72
2022-11-05T17:40:53.317Z,81.71
2022-11-05T17:43:20.283Z,81.76
2022-11-05T17:45:49.468Z,81.43
2022-11-05T17:48:16.931Z,81.82
2022-11-05T17:50:45.560Z,81.75
2022-11-05T17:53:13.066Z,81.27
2022-11-05T17:55:41.573Z,81.03
2022-11-05T17:58:08.385Z,81.29
2022-11-05T18:00:35.849Z,81.20
2022-11-05T18:03:02.513Z,81.64
2022-11-05T18:05:30.902Z,81.29
2022-11-05T18:07:57.833Z,81.00
2022-11-05T18:10:25.224Z,81.01
2022-11-05T18:12:52.114Z,81.43
2022-11-05T18:15:18.616Z,81.04
2022-11-05T18:17:46.307Z,81.23
2022-11-05T18:20:18.948Z,81.02
2022-11-05T18:22:48.053Z,81.41
2022-11-05T18:25:14.601Z,81.27
2022-11-05T18:27:41.284Z,81.17
2022-11-05T18:30:09.333Z,80.93
2022-11-05T18:32:35.964Z,80.66
2022-11-05T18:35:03.032Z,80.85
2022-11-05T18:37:29.455Z,80.00
2022-11-05T18:39:55.928Z,79.93
2022-11-05T18:42:22.791Z,79.99
2022-11-05T18:44:49.293Z,79.61
2022-11-05T18:47:15.758Z,79.56
2022-11-05T18:49:42.339Z,79.34
2022-11-05T18:52:08.812Z,78.93
2022-11-05T18:54:35.508Z,78.47
2022-11-05T18:57:02.648Z,78.41
2022-11-05T18:59:39.063Z,77.87
2022-11-05T19:02:07.873Z,78.32
2022-11-05T19:04:37.454Z,78.29
2022-11-05T19:07:05.964Z,78.44
2022-11-05T19:09:37.407Z,78.10
2022-11-05T19:12:05.745Z,78.35
2022-11-05T19:14:32.974Z,78.17
2022-11-05T19:17:00.796Z,78.21
2022-11-05T19:19:28.127Z,78.20
2022-11-05T19:21:54.684Z,77.71
2022-11-05T19:24:21.152Z,77.01
2022-11-05T19:26:48.021Z,76.81
2022-11-05T19:29:14.566Z,76.56
2022-11-05T19:31:41.053Z,77.14
2022-11-05T19:34:07.614Z,76.88
2022-11-05T19:36:34.652Z,76.63
2022-11-05T19:39:06.237Z,76.42
2022-11-05T19:41:33.049Z,76.56
2022-11-05T19:44:01.428Z,76.08
2022-11-05T19:46:28.953Z,75.92
2022-11-05T19:48:56.205Z,75.80
2022-11-05T19:51:25.488Z,76.01
2022-11-05T19:53:52.980Z,75.62
2022-11-05T19:56:22.045Z,75.66
2022-11-05T19:58:49.128Z,75.46
2022-11-05T20:01:17.046Z,75.81
2022-11-05T20:03:44.018Z,75.86
2022-11-05T20:06:13.037Z,75.58
2022-11-05T20:09:06.671Z,75.85
2022-11-05T20:11:28.228Z,75.99
2022-11-05T20:13:54.724Z,76.43
2022-11-05T20:16:25.924Z,76.73
2022-11-05T20:18:52.507Z,76.21
2022-11-05T20:21:19.365Z,76.66
2022-11-05T20:23:47.153Z,76.50
2022-11-05T20:26:14.610Z,77.00
2022-11-05T20:28:42.835Z,77.12
2022-11-05T20:31:13.040Z,76.51
2022-11-05T20:33:40.744Z,77.04
2022-11-05T20:36:10.087Z,76.93
2022-11-05T20:38:36.543Z,76.53
2022-11-05T20:41:08.104Z,76.85
2022-11-05T20:43:35.576Z,76.67
2022-11-05T20:46:03.065Z,76.94
2022-11-05T20:48:34.378Z,76.81
2022-11-05T20:51:06.571Z,76.35
2022-11-05T20:53:33.319Z,76.58
2022-11-05T20:56:02.517Z,76.52
2022-11-05T20:58:33.384Z,76.47
2022-11-05T21:01:00.162Z,76.26
2022-11-05T21:03:27.968Z,76.05
2022-11-05T21:05:59.778Z,76.64
2022-11-05T21:08:27.949Z,76.59
2022-11-05T21:10:55.965Z,76.52
2022-11-05T21:13:23.443Z,76.62
2022-11-05T21:15:52.340Z,76.50
2022-11-05T21:18:20.648Z,76.21
2022-11-05T21:20:47.818Z,76.24
2022-11-05T21:23:15.385Z,76.34
2022-11-05T21:25:43.254Z,75.68
2022-11-05T21:28:11.546Z,75.76
2022-11-05T21:30:41.596Z,75.90
2022-11-05T21:33:08.969Z,75.90
2022-11-05T21:35:39.821Z,75.89
2022-11-05T21:38:06.778Z,75.59
2022-11-05T21:40:33.419Z,75.61
2022-11-05T21:43:00.108Z,75.62
2022-11-05T21:45:28.116Z,76.01
2022-11-05T21:47:54.706Z,75.76
2022-11-05T21:50:41.247Z,75.54
2022-11-05T21:53:32.222Z,76.73
2022-11-05T21:56:18.327Z,76.36
2022-11-05T21:59:03.428Z,76.14
2022-11-05T22:01:30.096Z,76.22
2022-11-05T22:04:01.876Z,76.24
2022-11-05T22:06:32.601Z,76.28
2022-11-05T22:08:59.419Z,76.66
2022-11-05T22:11:26.047Z,76.42
2022-11-05T22:13:53.444Z,76.59
2022-11-05T22:16:19.952Z,76.95
2022-11-05T22:18:46.389Z,77.18
2022-11-05T22:21:19.126Z,76.86
2022-11-05T22:23:45.780Z,76.99
2022-11-05T22:26:12.457Z,77.48
2022-11-05T22:28:38.987Z,77.22
2022-11-05T22:31:12.372Z,77.39
2022-11-05T22:33:38.889Z,77.61
2022-11-05T22:36:05.779Z,77.40
2022-11-05T22:38:32.301Z,77.54
2022-11-05T22:40:59.454Z,77.54
2022-11-05T22:43:26.016Z,77.59
2022-11-05T22:45:52.487Z,78.15
2022-11-05T22:48:18.901Z,78.05
2022-11-05T22:50:45.396Z,77.74
2022-11-05T22:53:11.852Z,77.72
2022-11-05T22:55:41.069Z,78.39
2022-11-05T22:58:07.553Z,78.25
2022-11-05T23:00:36.929Z,78.18
2022-11-05T23:03:03.924Z,78.29
2022-11-05T23:05:30.681Z,77.80
2022-11-05T23:08:16.032Z,78.03
2022-11-05T23:11:04.263Z,78.03
2022-11-05T23:13:30.874Z,78.42
2022-11-05T23:16:15.713Z,78.76
2022-11-05T23:19:01.031Z,78.51
2022-11-05T23:21:46.131Z,78.59
2022-11-05T23:24:13.460Z,78.81
2022-11-05T23:26:52.599Z,78.62
2022-11-05T23:29:21.909Z,78.04
2022-11-05T23:32:07.188Z,78.64
2022-11-05T23:34:33.708Z,78.22
2022-11-05T23:37:19.099Z,78.53
2022-11-05T23:39:45.635Z,78.54
2022-11-05T23:42:31.448Z,78.88
2022-11-05T23:45:16.689Z,79.18
2022-11-05T23:48:01.600Z,78.76
2022-11-05T23:50:29.392Z,79.36
2022-11-05T23:52:56.200Z,79.10
2022-11-05T23:55:23.461Z,79.36
2022-11-05T23:57:50.310Z,79.60
